createdAt,value
2023-04-01T00:00:29.657Z,22.02
2023-04-01T00:02:57.659Z,22.42
2023-04-01T00:05:39.741Z,24.90
2023-04-01T00:08:07.145Z,24.42
2023-04-01T00:10:34.090Z,27.80
2023-04-01T00:13:01.685Z,29.30
2023-04-01T00:15:28.580Z,22.27
2023-04-01T00:17:56.106Z,23.73
2023-04-01T00:20:31.991Z,25.67
2023-04-01T00:22:59.046Z,25.48
2023-04-01T00:25:26.178Z,25.65
2023-04-01T00:27:53.972Z,28.35
2023-04-01T00:30:21.176Z,25.85
2023-04-01T00:32:48.171Z,29.10
2023-04-01T00:35:15.141Z,27.33
2023-04-01T00:37:42.058Z,27.05
2023-04-01T00:40:22.802Z,26.40
2023-04-01T00:42:49.823Z,18.08
2023-04-01T00:45:41.500Z,25.55
2023-04-01T00:48:12.819Z,26.35
2023-04-01T00:50:44.342Z,31.98
2023-04-01T00:53:12.175Z,27.23
2023-04-01T00:55:45.333Z,33.22
2023-04-01T00:58:17.855Z,20.02
2023-04-01T01:00:46.602Z,20.83
2023-04-01T01:03:13.849Z,29.15
2023-04-01T01:06:09.163Z,27.88
2023-04-01T01:11:43.249Z,27.90
2023-04-01T01:14:52.654Z,26.23
2023-04-01T01:17:39.894Z,32.97
2023-04-01T01:20:34.408Z,29.55
2023-04-01T01:23:10.647Z,31.90
2023-04-01T01:25:56.825Z,31.08
2023-04-01T01:28:57.053Z,30.00
2023-04-01T01:31:32.085Z,31.67
2023-04-01T01:33:58.958Z,20.02
2023-04-01T01:36:29.761Z,25.48
2023-04-01T01:38:58.760Z,45.33
2023-04-01T01:41:28.123Z,33.00
2023-04-01T01:43:59.864Z,28.95
2023-04-01T01:46:30.407Z,35.45
2023-04-01T01:49:00.547Z,27.30
2023-04-01T01:51:29.148Z,27.80
2023-04-01T01:53:56.255Z,26.05
2023-04-01T01:56:29.022Z,32.22
2023-04-01T01:59:04.599Z,29.63
2023-04-01T02:01:36.970Z,33.97
2023-04-01T02:04:14.325Z,33.40
2023-04-01T02:06:48.308Z,29.60
2023-04-01T02:09:15.970Z,31.23
2023-04-01T02:11:53.355Z,37.03
2023-04-01T02:14:36.108Z,31.25
2023-04-01T02:17:08.096Z,33.67
2023-04-01T02:19:44.245Z,33.83
2023-04-01T02:22:17.594Z,33.78
2023-04-01T02:24:46.521Z,22.42
2023-04-01T02:27:13.977Z,29.23
2023-04-01T02:29:41.180Z,28.70
2023-04-01T02:32:10.448Z,24.15
2023-04-01T02:34:38.198Z,34.50
2023-04-01T02:37:05.497Z,35.78
2023-04-01T02:39:32.617Z,36.88
2023-04-01T02:41:59.686Z,28.38
2023-04-01T02:44:26.753Z,31.50
2023-04-01T02:46:54.115Z,46.42
2023-04-01T02:49:21.201Z,69.30
2023-04-01T02:51:48.213Z,34.80
2023-04-01T02:54:15.816Z,30.65
2023-04-01T02:56:43.840Z,27.23
2023-04-01T02:59:10.944Z,34.63
2023-04-01T03:01:38.009Z,31.20
2023-04-01T03:04:05.578Z,33.53
2023-04-01T03:06:32.545Z,24.92
2023-04-01T03:08:59.445Z,24.52
2023-04-01T03:11:27.416Z,24.90
2023-04-01T03:13:54.681Z,30.67
2023-04-01T03:16:21.686Z,38.15
2023-04-01T03:18:51.765Z,34.33
2023-04-01T03:21:21.828Z,29.35
2023-04-01T03:23:49.007Z,36.05
2023-04-01T03:26:16.622Z,51.33
2023-04-01T03:28:44.455Z,24.65
2023-04-01T03:31:11.820Z,38.38
2023-04-01T03:33:45.562Z,38.85
2023-04-01T03:36:13.938Z,23.85
2023-04-01T03:38:45.698Z,25.75
2023-04-01T03:41:17.421Z,29.08
2023-04-01T03:43:45.181Z,25.02
2023-04-01T03:46:12.622Z,31.48
2023-04-01T03:48:39.766Z,26.25
2023-04-01T03:51:09.952Z,33.55
2023-04-01T03:53:37.253Z,111.68
2023-04-01T03:56:10.222Z,31.20
2023-04-01T03:58:37.750Z,27.00
2023-04-01T04:01:26.295Z,55.42
2023-04-01T04:03:57.358Z,25.85
2023-04-01T04:06:25.175Z,21.77
2023-04-01T04:08:53.111Z,38.20
2023-04-01T04:11:22.108Z,35.28
2023-04-01T04:13:53.321Z,27.55
2023-04-01T04:16:20.982Z,29.48
2023-04-01T04:18:55.036Z,32.60
2023-04-01T04:21:21.977Z,35.92
2023-04-01T04:23:48.932Z,26.33
2023-04-01T04:26:18.621Z,37.75
2023-04-01T04:28:54.683Z,28.13
2023-04-01T04:31:25.602Z,43.38
2023-04-01T04:33:55.436Z,33.40
2023-04-01T04:36:23.043Z,33.33
2023-04-01T04:38:51.662Z,35.17
2023-04-01T04:41:20.470Z,34.83
2023-04-01T04:43:55.383Z,40.28
2023-04-01T04:46:24.959Z,40.17
2023-04-01T04:48:58.413Z,26.88
2023-04-01T04:51:26.448Z,32.17
2023-04-01T04:53:53.457Z,32.17
2023-04-01T04:56:29.877Z,28.23
2023-04-01T04:59:08.627Z,32.95
2023-04-01T05:01:58.815Z,32.53
2023-04-01T05:04:25.783Z,32.50
2023-04-01T05:06:52.884Z,30.75
2023-04-01T05:09:20.028Z,28.55
2023-04-01T05:11:46.902Z,30.83
2023-04-01T05:14:16.091Z,35.13
2023-04-01T05:16:46.808Z,32.28
2023-04-01T05:19:14.286Z,31.83
2023-04-01T05:21:41.149Z,26.90
2023-04-01T05:24:11.725Z,31.25
2023-04-01T05:26:39.654Z,33.45
2023-04-01T05:29:06.803Z,31.08
2023-04-01T05:31:34.112Z,30.50
2023-04-01T05:34:01.655Z,24.38
2023-04-01T05:36:28.784Z,37.53
2023-04-01T05:38:57.549Z,24.80
2023-04-01T05:41:26.806Z,26.85
2023-04-01T05:43:53.711Z,29.10
2023-04-01T05:46:39.114Z,28.30
2023-04-01T05:49:35.214Z,33.35
2023-04-01T05:52:03.950Z,34.08
2023-04-01T05:54:32.205Z,32.50
2023-04-01T05:56:59.204Z,52.72
2023-04-01T05:59:26.303Z,25.55
2023-04-01T06:01:54.026Z,29.95
2023-04-01T06:04:21.344Z,33.60
2023-04-01T06:06:48.302Z,32.67
2023-04-01T06:09:20.601Z,35.42
2023-04-01T06:12:14.259Z,27.02
2023-04-01T06:15:01.182Z,27.65
2023-04-01T06:17:57.065Z,25.38
2023-04-01T06:20:38.445Z,24.42
2023-04-01T06:23:35.905Z,20.20
2023-04-01T06:26:25.819Z,21.17
2023-04-01T06:29:27.255Z,27.48
2023-04-01T06:32:13.796Z,19.88
2023-04-01T06:34:59.852Z,32.22
2023-04-01T06:37:48.469Z,22.98
2023-04-01T06:40:22.824Z,26.35
2023-04-01T06:43:10.970Z,18.77
2023-04-01T06:46:18.848Z,23.05
2023-04-01T06:49:14.293Z,20.90
2023-04-01T06:52:35.296Z,14.85
2023-04-01T06:55:51.179Z,17.67
2023-04-01T06:58:42.921Z,26.95
2023-04-01T07:02:00.699Z,19.75
2023-04-01T07:04:32.834Z,20.05
2023-04-01T07:07:21.602Z,19.27
2023-04-01T07:10:00.424Z,18.63
2023-04-01T07:12:34.985Z,21.20
2023-04-01T07:15:22.231Z,25.40
2023-04-01T07:18:13.293Z,19.02
2023-04-01T07:20:40.944Z,22.20
2023-04-01T07:23:18.083Z,13.90
2023-04-01T07:26:01.557Z,27.30
2023-04-01T07:28:35.284Z,21.60
2023-04-01T07:31:26.526Z,22.20
2023-04-01T07:34:21.853Z,18.90
2023-04-01T07:37:03.801Z,17.95
2023-04-01T07:39:37.124Z,21.48
2023-04-01T07:42:38.747Z,17.67
2023-04-01T07:45:28.011Z,19.67
2023-04-01T07:48:26.499Z,15.73
2023-04-01T07:50:58.320Z,16.15
2023-04-01T07:53:31.351Z,19.30
2023-04-01T07:56:13.293Z,18.70
2023-04-01T07:58:56.975Z,20.75
2023-04-01T08:02:02.673Z,19.35
2023-04-01T08:04:36.366Z,18.83
2023-04-01T08:07:27.532Z,14.05
2023-04-01T08:10:24.572Z,16.08
2023-04-01T08:13:22.207Z,21.65
2023-04-01T08:16:33.222Z,18.60
2023-04-01T08:19:43.413Z,16.63
2023-04-01T08:22:30.418Z,28.77
2023-04-01T08:25:05.305Z,17.00
2023-04-01T08:27:54.766Z,26.67
2023-04-01T08:30:27.191Z,25.50
2023-04-01T08:33:06.267Z,22.63
2023-04-01T08:35:42.803Z,24.92
2023-04-01T08:38:19.564Z,22.20
2023-04-01T08:41:14.687Z,26.25
2023-04-01T08:45:05.087Z,22.08
2023-04-01T08:47:56.485Z,19.10
2023-04-01T08:50:35.849Z,19.48
2023-04-01T08:53:12.645Z,17.15
2023-04-01T08:56:21.806Z,28.05
2023-04-01T08:59:15.644Z,15.70
2023-04-01T09:02:11.479Z,14.85
2023-04-01T09:05:04.459Z,22.60
2023-04-01T09:08:02.770Z,17.05
2023-04-01T09:10:29.943Z,32.35
2023-04-01T09:13:38.687Z,14.60
2023-04-01T09:16:24.433Z,15.85
2023-04-01T09:19:32.638Z,18.38
2023-04-01T09:22:22.572Z,19.15
2023-04-01T09:25:24.301Z,16.45
2023-04-01T09:28:29.758Z,22.80
2023-04-01T09:31:00.167Z,23.90
2023-04-01T09:33:49.141Z,17.17
2023-04-01T09:36:28.207Z,20.20
2023-04-01T09:38:55.422Z,14.18
2023-04-01T09:41:55.585Z,20.67
2023-04-01T09:45:20.146Z,15.65
2023-04-01T09:48:14.242Z,23.95
2023-04-01T09:50:41.477Z,17.42
2023-04-01T09:53:26.836Z,23.55
2023-04-01T09:56:32.968Z,23.20
2023-04-01T09:59:21.804Z,12.88
2023-04-01T10:02:58.295Z,17.38
2023-04-01T10:05:43.061Z,19.33
2023-04-01T10:08:20.327Z,16.33
2023-04-01T10:11:11.616Z,14.52
2023-04-01T10:13:57.658Z,14.73
2023-04-01T10:16:46.964Z,17.70
2023-04-01T10:19:32.031Z,19.48
2023-04-01T10:22:18.006Z,11.25
2023-04-01T10:24:49.638Z,12.80
2023-04-01T10:27:35.102Z,16.58
2023-04-01T10:30:07.461Z,15.18
2023-04-01T10:32:47.115Z,13.43
2023-04-01T10:35:39.213Z,16.60
2023-04-01T10:38:18.035Z,20.33
2023-04-01T10:41:04.199Z,13.45
2023-04-01T10:43:52.941Z,16.80
2023-04-01T10:46:38.401Z,16.77
2023-04-01T10:49:29.539Z,24.92
2023-04-01T10:52:06.317Z,18.70
2023-04-01T10:55:16.681Z,13.30
2023-04-01T10:58:21.659Z,16.60
2023-04-01T11:01:28.756Z,15.73
2023-04-01T11:04:32.709Z,11.90
2023-04-01T11:07:31.452Z,20.50
2023-04-01T11:10:16.467Z,16.27
2023-04-01T11:13:07.754Z,12.82
2023-04-01T11:16:11.979Z,13.50
2023-04-01T11:19:06.093Z,14.48
2023-04-01T11:21:39.015Z,11.07
2023-04-01T11:24:43.313Z,16.70
2023-04-01T11:28:07.259Z,14.13
2023-04-01T11:30:43.608Z,15.55
2023-04-01T11:33:22.101Z,15.40
2023-04-01T11:36:11.620Z,16.92
2023-04-01T11:39:04.498Z,15.98
2023-04-01T11:42:18.929Z,9.73
2023-04-01T11:45:30.143Z,15.13
2023-04-01T11:48:28.711Z,15.40
2023-04-01T11:51:21.086Z,19.75
2023-04-01T11:54:18.461Z,16.65
2023-04-01T11:57:18.775Z,25.20
2023-04-01T12:00:19.294Z,15.45
2023-04-01T12:02:57.924Z,15.43
2023-04-01T12:05:51.274Z,13.90
2023-04-01T12:08:42.888Z,15.85
2023-04-01T12:11:37.935Z,18.55
2023-04-01T12:14:31.972Z,15.00
2023-04-01T12:17:10.744Z,18.45
2023-04-01T12:19:54.874Z,19.08
2023-04-01T12:22:36.448Z,22.33
2023-04-01T12:25:18.548Z,16.73
2023-04-01T12:27:59.953Z,20.65
2023-04-01T12:30:32.771Z,19.52
2023-04-01T12:33:24.400Z,18.42
2023-04-01T12:36:33.150Z,15.63
2023-04-01T12:39:37.790Z,16.27
2023-04-01T12:42:30.215Z,19.23
2023-04-01T12:45:18.567Z,19.77
2023-04-01T12:48:12.006Z,21.05
2023-04-01T12:51:03.948Z,22.70
2023-04-01T12:53:58.856Z,19.40
2023-04-01T12:56:44.372Z,18.40
2023-04-01T12:59:48.172Z,17.65
2023-04-01T13:02:30.710Z,20.35
2023-04-01T13:04:58.798Z,17.98
2023-04-01T13:07:46.587Z,25.17
2023-04-01T13:10:38.475Z,15.40
2023-04-01T13:13:05.496Z,20.00
2023-04-01T13:15:44.801Z,20.15
2023-04-01T13:18:23.962Z,20.70
2023-04-01T13:21:07.413Z,16.40
2023-04-01T13:23:50.035Z,18.13
2023-04-01T13:26:35.825Z,21.13
2023-04-01T13:29:15.446Z,18.08
2023-04-01T13:32:17.981Z,20.55
2023-04-01T13:35:09.802Z,13.13
2023-04-01T13:37:44.464Z,14.82
2023-04-01T13:41:02.346Z,14.18
2023-04-01T13:43:40.939Z,10.52
2023-04-01T13:46:36.292Z,13.35
2023-04-01T13:49:13.241Z,7.88
2023-04-01T13:51:40.343Z,19.67
2023-04-01T13:54:22.183Z,16.40
2023-04-01T13:57:15.799Z,11.38
2023-04-01T14:00:07.514Z,12.50
2023-04-01T14:03:14.722Z,13.25
2023-04-01T14:06:00.616Z,11.93
2023-04-01T14:09:09.278Z,13.45
2023-04-01T14:12:07.536Z,18.95
2023-04-01T14:14:40.736Z,11.57
2023-04-01T14:17:25.600Z,12.60
2023-04-01T14:22:45.211Z,14.23
2023-04-01T14:25:50.033Z,11.73
2023-04-01T14:28:43.017Z,14.37
2023-04-01T14:31:35.649Z,16.30
2023-04-01T14:34:05.910Z,12.30
2023-04-01T14:36:58.346Z,19.85
2023-04-01T14:39:37.395Z,19.45
2023-04-01T14:42:28.517Z,19.67
2023-04-01T14:45:03.176Z,15.98
2023-04-01T14:50:41.724Z,15.23
2023-04-01T14:53:08.547Z,18.13
2023-04-01T14:55:44.604Z,22.35
2023-04-01T14:58:20.691Z,17.58
2023-04-01T15:00:50.397Z,18.85
2023-04-01T15:03:35.023Z,13.35
2023-04-01T15:06:26.939Z,16.55
2023-04-01T15:09:08.915Z,10.35
2023-04-01T15:12:01.759Z,14.90
2023-04-01T15:14:28.568Z,19.20
2023-04-01T15:17:15.624Z,19.98
2023-04-01T15:20:03.439Z,15.50
2023-04-01T15:22:59.510Z,14.60
2023-04-01T15:25:37.125Z,17.58
2023-04-01T15:28:12.267Z,18.90
2023-04-01T15:31:06.155Z,12.18
2023-04-01T15:34:10.131Z,14.05
2023-04-01T15:36:56.055Z,14.57
2023-04-01T15:39:32.295Z,12.05
2023-04-01T15:42:35.640Z,15.05
2023-04-01T15:45:27.309Z,16.25
2023-04-01T15:48:08.347Z,16.88
2023-04-01T15:51:02.239Z,14.00
2023-04-01T15:53:45.979Z,22.35
2023-04-01T15:56:42.456Z,22.23
2023-04-01T15:59:15.812Z,21.50
2023-04-01T16:02:03.990Z,16.38
2023-04-01T16:04:46.482Z,20.58
2023-04-01T16:07:22.596Z,14.07
2023-04-01T16:10:19.166Z,18.92
2023-04-01T16:13:01.074Z,19.70
2023-04-01T16:15:38.711Z,20.88
2023-04-01T16:18:23.394Z,16.90
2023-04-01T16:21:06.103Z,16.52
2023-04-01T16:23:44.802Z,15.90
2023-04-01T16:26:38.211Z,21.00
2023-04-01T16:29:39.560Z,23.77
2023-04-01T16:32:38.213Z,14.15
2023-04-01T16:35:42.754Z,15.60
2023-04-01T16:38:32.221Z,25.08
2023-04-01T16:41:20.350Z,17.17
2023-04-01T16:43:58.248Z,16.40
2023-04-01T16:46:40.431Z,20.17
2023-04-01T16:49:13.058Z,20.67
2023-04-01T16:51:52.735Z,22.45
2023-04-01T16:54:22.694Z,17.27
2023-04-01T16:56:55.526Z,23.75
2023-04-01T16:59:32.642Z,12.50
2023-04-01T17:02:14.651Z,23.85
2023-04-01T17:04:46.029Z,15.35
2023-04-01T17:07:40.277Z,23.67
2023-04-01T17:10:52.163Z,15.18
2023-04-01T17:13:34.072Z,19.48
2023-04-01T17:16:06.811Z,32.45
2023-04-01T17:18:42.703Z,13.73
2023-04-01T17:21:24.214Z,16.40
2023-04-01T17:24:10.924Z,10.85
2023-04-01T17:26:47.300Z,6.15
2023-04-01T17:29:27.992Z,19.50
2023-04-01T17:32:04.041Z,18.20
2023-04-01T17:34:57.354Z,9.13
2023-04-01T17:37:34.558Z,2.25
2023-04-01T17:40:01.522Z,6.88
2023-04-01T17:42:57.024Z,7.82
2023-04-01T17:45:43.903Z,10.35
2023-04-01T17:48:25.485Z,16.50
2023-04-01T17:51:11.208Z,18.15
2023-04-01T17:54:01.140Z,25.00
2023-04-01T17:56:56.802Z,20.27
2023-04-01T17:59:37.064Z,18.08
2023-04-01T18:02:28.185Z,26.60
2023-04-01T18:05:04.363Z,22.90
2023-04-01T18:07:41.865Z,23.33
2023-04-01T18:10:24.969Z,20.95
2023-04-01T18:13:10.909Z,18.98
2023-04-01T18:16:12.363Z,27.48
2023-04-01T18:18:49.693Z,23.65
2023-04-01T18:21:32.400Z,22.30
2023-04-01T18:24:14.348Z,18.73
2023-04-01T18:26:45.229Z,23.20
2023-04-01T18:29:14.842Z,27.75
2023-04-01T18:31:47.319Z,28.33
2023-04-01T18:34:35.419Z,23.77
2023-04-01T18:37:15.530Z,30.08
2023-04-01T18:39:53.449Z,24.00
2023-04-01T18:42:51.728Z,25.33
2023-04-01T18:45:32.052Z,26.48
2023-04-01T18:48:05.092Z,24.70
2023-04-01T18:51:03.716Z,27.00
2023-04-01T18:53:55.894Z,25.48
2023-04-01T18:56:52.135Z,36.35
2023-04-01T18:59:29.539Z,24.95
2023-04-01T19:02:33.045Z,24.92
2023-04-01T19:05:18.311Z,21.88
2023-04-01T19:07:49.478Z,16.50
2023-04-01T19:10:43.104Z,15.32
2023-04-01T19:13:41.691Z,14.48
2023-04-01T19:16:37.736Z,11.00
2023-04-01T19:19:22.058Z,9.30
2023-04-01T19:21:54.781Z,14.17
2023-04-01T19:24:48.130Z,12.32
2023-04-01T19:27:32.778Z,16.73
2023-04-01T19:30:33.715Z,7.93
2023-04-01T19:33:21.938Z,12.00
2023-04-01T19:36:11.384Z,19.90
2023-04-01T19:38:41.416Z,20.58
2023-04-01T19:41:55.860Z,15.25
2023-04-01T19:44:35.190Z,13.05
2023-04-01T19:47:16.013Z,13.50
2023-04-01T19:50:09.854Z,13.63
2023-04-01T19:52:42.385Z,15.95
2023-04-01T19:55:37.628Z,14.18
2023-04-01T19:58:22.200Z,15.95
2023-04-01T20:00:58.085Z,11.98
2023-04-01T20:03:45.673Z,18.60
2023-04-01T20:06:33.722Z,17.65
2023-04-01T20:09:38.140Z,17.77
2023-04-01T20:12:15.855Z,12.82
2023-04-01T20:14:50.265Z,11.63
2023-04-01T20:17:43.107Z,11.50
2023-04-01T20:20:13.388Z,18.10
2023-04-01T20:22:46.201Z,17.92
2023-04-01T20:25:50.671Z,15.77
2023-04-01T20:28:20.940Z,13.52
2023-04-01T20:31:27.458Z,19.60
2023-04-01T20:34:15.972Z,14.43
2023-04-01T20:37:08.128Z,13.27
2023-04-01T20:39:50.576Z,14.02
2023-04-01T20:42:45.882Z,12.27
2023-04-01T20:48:13.240Z,15.00
2023-04-01T20:50:52.439Z,17.48
2023-04-01T20:53:57.990Z,16.42
2023-04-01T20:56:56.574Z,12.27
2023-04-01T20:59:26.943Z,17.70
2023-04-01T21:02:03.329Z,18.20
2023-04-01T21:05:12.094Z,14.30
2023-04-01T21:07:47.472Z,11.88
2023-04-01T21:10:26.658Z,13.13
2023-04-01T21:13:17.665Z,10.60
2023-04-01T21:16:11.272Z,10.65
2023-04-01T21:18:59.031Z,13.98
2023-04-01T21:21:51.379Z,14.68
2023-04-01T21:24:42.369Z,19.35
2023-04-01T21:27:21.774Z,9.63
2023-04-01T21:30:27.526Z,11.20
2023-04-01T21:35:42.881Z,14.52
2023-04-01T21:38:24.300Z,16.73
2023-04-01T21:41:16.094Z,19.98
2023-04-01T21:44:11.157Z,8.35
2023-04-01T21:46:41.104Z,10.32
2023-04-01T21:49:26.346Z,15.93
2023-04-01T21:52:20.726Z,8.85
2023-04-01T21:55:09.278Z,11.32
2023-04-01T21:58:00.417Z,10.10
2023-04-01T22:00:37.746Z,9.00
2023-04-01T22:03:19.799Z,6.57
2023-04-01T22:06:12.619Z,10.98
2023-04-01T22:09:02.348Z,5.80
2023-04-01T22:11:39.591Z,7.93
2023-04-01T22:14:43.420Z,12.05
2023-04-01T22:17:26.228Z,8.90
2023-04-01T22:20:10.405Z,3.30
2023-04-01T22:22:37.311Z,5.03
2023-04-01T22:25:23.690Z,6.45
2023-04-01T22:28:16.330Z,7.80
2023-04-01T22:30:51.345Z,4.47
2023-04-01T22:33:37.235Z,6.70
2023-04-01T22:36:35.239Z,10.65
2023-04-01T22:39:18.458Z,8.60
2023-04-01T22:42:05.530Z,9.60
2023-04-01T22:45:11.898Z,15.57
2023-04-01T22:48:26.455Z,6.22
2023-04-01T22:51:14.491Z,9.02
2023-04-01T22:53:59.830Z,6.38
2023-04-01T22:56:34.655Z,11.10
2023-04-01T22:59:11.846Z,5.85
2023-04-01T23:01:48.485Z,11.05
2023-04-01T23:04:21.704Z,6.32
2023-04-01T23:06:54.803Z,10.90
2023-04-01T23:09:30.679Z,7.38
2023-04-01T23:12:05.829Z,10.10
2023-04-01T23:14:38.299Z,9.63
2023-04-01T23:17:39.179Z,5.65
2023-04-01T23:20:22.793Z,7.55
2023-04-01T23:23:12.264Z,7.03
2023-04-01T23:26:07.286Z,5.82
2023-04-01T23:28:41.893Z,9.50
2023-04-01T23:32:01.195Z,8.05
2023-04-01T23:34:37.735Z,13.13
2023-04-01T23:37:17.186Z,7.50
2023-04-01T23:39:46.995Z,9.50
2023-04-01T23:42:20.897Z,12.70
2023-04-01T23:44:50.742Z,10.30
2023-04-01T23:47:23.091Z,8.48
2023-04-01T23:49:56.158Z,6.57
2023-04-01T23:52:26.344Z,9.80
2023-04-01T23:54:59.315Z,8.75
2023-04-01T23:57:32.137Z,15.57
